sensor_id;sensor_type;location;lat;lon;timestamp;pressure;altitude;pressure_sealevel;temperature;humidity
34500;BME280;20745;50.882;6.962;2023-02-05T00:00:26;103077.19;;;9.43;100.00
34500;BME280;20745;50.882;6.962;2023-02-05T00:02:53;103079.34;;;9.38;100.00
34500;BME280;20745;50.882;6.962;2023-02-05T00:05:19;103070.75;;;9.33;100.00
34500;BME280;20745;50.882;6.962;2023-02-05T00:07:46;103070.75;;;9.33;100.00
34500;BME280;20745;50.882;6.962;2023-02-05T00:10:13;103064.03;;;9.38;100.00
34500;BME280;20745;50.882;6.962;2023-02-05T00:12:39;103058.88;;;9.35;100.00
34500;BME280;20745;50.882;6.962;2023-02-05T00:15:06;103058.00;;;9.35;100.00
34500;BME280;20745;50.882;6.962;2023-02-05T00:17:34;103045.97;;;9.28;100.00
34500;BME280;20745;50.882;6.962;2023-02-05T00:20:02;103041.56;;;9.27;100.00
34500;BME280;20745;50.882;6.962;2023-02-05T00:22:29;103039.94;;;9.24;100.00
34500;BME280;20745;50.882;6.962;2023-02-05T00:24:55;103039.09;;;9.24;100.00
34500;BME280;20745;50.882;6.962;2023-02-05T00:27:21;103040.56;;;9.28;100.00
34500;BME280;20745;50.882;6.962;2023-02-05T00:29:48;103033.00;;;9.33;100.00
34500;BME280;20745;50.882;6.962;2023-02-05T00:32:15;103031.03;;;9.35;100.00
34500;BME280;20745;50.882;6.962;2023-02-05T00:34:41;103027.97;;;9.28;100.00
34500;BME280;20745;50.882;6.962;2023-02-05T00:37:08;103025.81;;;9.10;100.00
34500;BME280;20745;50.882;6.962;2023-02-05T00:39:34;103019.75;;;9.06;100.00
34500;BME280;20745;50.882;6.962;2023-02-05T00:42:01;103020.88;;;9.04;100.00
34500;BME280;20745;50.882;6.962;2023-02-05T00:44:27;103017.75;;;8.97;100.00
34500;BME280;20745;50.882;6.962;2023-02-05T00:46:54;103015.19;;;8.96;100.00
34500;BME280;20745;50.882;6.962;2023-02-05T00:49:20;103022.81;;;9.02;100.00
34500;BME280;20745;50.882;6.962;2023-02-05T00:51:47;102992.53;;;8.75;100.00
34500;BME280;20745;50.882;6.962;2023-02-05T00:54:13;103026.72;;;8.98;100.00
34500;BME280;20745;50.882;6.962;2023-02-05T00:56:40;103017.59;;;9.11;100.00
34500;BME280;20745;50.882;6.962;2023-02-05T00:59:06;102977.66;;;8.93;100.00
34500;BME280;20745;50.882;6.962;2023-02-05T01:01:33;103012.44;;;9.08;100.00
34500;BME280;20745;50.882;6.962;2023-02-05T01:04:00;103012.81;;;9.15;100.00
34500;BME280;20745;50.882;6.962;2023-02-05T01:06:26;102997.41;;;9.17;100.00
34500;BME280;20745;50.882;6.962;2023-02-05T01:08:52;102986.72;;;9.15;100.00
34500;BME280;20745;50.882;6.962;2023-02-05T01:11:19;102992.34;;;9.12;100.00
34500;BME280;20745;50.882;6.962;2023-02-05T01:13:45;102992.44;;;9.00;100.00
34500;BME280;20745;50.882;6.962;2023-02-05T01:16:12;102992.53;;;8.98;100.00
34500;BME280;20745;50.882;6.962;2023-02-05T01:18:39;102997.06;;;8.98;100.00
34500;BME280;20745;50.882;6.962;2023-02-05T01:21:05;102999.75;;;8.98;100.00
34500;BME280;20745;50.882;6.962;2023-02-05T01:23:32;102979.75;;;8.89;100.00
34500;BME280;20745;50.882;6.962;2023-02-05T01:25:59;102985.53;;;8.96;100.00
34500;BME280;20745;50.882;6.962;2023-02-05T01:28:25;102990.22;;;9.05;100.00
34500;BME280;20745;50.882;6.962;2023-02-05T01:30:52;102979.69;;;9.02;100.00
34500;BME280;20745;50.882;6.962;2023-02-05T01:33:19;102979.78;;;9.00;100.00
34500;BME280;20745;50.882;6.962;2023-02-05T01:35:45;102975.84;;;8.93;100.00
34500;BME280;20745;50.882;6.962;2023-02-05T01:38:13;102974.97;;;8.93;100.00
34500;BME280;20745;50.882;6.962;2023-02-05T01:40:40;102969.84;;;8.90;100.00
34500;BME280;20745;50.882;6.962;2023-02-05T01:43:15;102965.63;;;8.86;100.00
34500;BME280;20745;50.882;6.962;2023-02-05T01:46:04;102960.03;;;8.89;100.00
34500;BME280;20745;50.882;6.962;2023-02-05T01:48:36;102961.22;;;8.85;100.00
34500;BME280;20745;50.882;6.962;2023-02-05T01:51:08;102955.56;;;8.77;100.00
34500;BME280;20745;50.882;6.962;2023-02-05T01:53:37;102964.84;;;8.73;100.00
34500;BME280;20745;50.882;6.962;2023-02-05T01:56:32;102977.69;;;8.69;100.00
34500;BME280;20745;50.882;6.962;2023-02-05T01:59:17;102982.00;;;8.72;100.00
34500;BME280;20745;50.882;6.962;2023-02-05T02:01:45;102978.09;;;8.76;100.00
34500;BME280;20745;50.882;6.962;2023-02-05T02:04:15;102964.34;;;8.68;100.00
34500;BME280;20745;50.882;6.962;2023-02-05T02:06:44;102981.94;;;8.61;100.00
34500;BME280;20745;50.882;6.962;2023-02-05T02:09:10;102974.34;;;8.66;100.00
34500;BME280;20745;50.882;6.962;2023-02-05T02:11:41;102963.25;;;8.70;100.00
34500;BME280;20745;50.882;6.962;2023-02-05T02:14:09;102954.66;;;8.65;100.00
34500;BME280;20745;50.882;6.962;2023-02-05T02:16:37;102944.34;;;8.59;100.00
34500;BME280;20745;50.882;6.962;2023-02-05T02:19:11;102952.31;;;8.61;100.00
34500;BME280;20745;50.882;6.962;2023-02-05T02:30:38;102940.03;;;8.57;100.00
34500;BME280;20745;50.882;6.962;2023-02-05T02:33:19;102949.03;;;8.45;100.00
34500;BME280;20745;50.882;6.962;2023-02-05T02:38:32;102970.19;;;8.26;100.00
34500;BME280;20745;50.882;6.962;2023-02-05T02:41:08;102967.50;;;8.26;100.00
34500;BME280;20745;50.882;6.962;2023-02-05T02:43:54;102959.53;;;8.37;100.00
34500;BME280;20745;50.882;6.962;2023-02-05T02:46:39;102963.75;;;8.52;100.00
34500;BME280;20745;50.882;6.962;2023-02-05T02:49:11;102968.47;;;8.61;100.00
34500;BME280;20745;50.882;6.962;2023-02-05T02:51:41;102965.03;;;8.59;100.00
34500;BME280;20745;50.882;6.962;2023-02-05T02:54:12;102969.03;;;8.53;100.00
34500;BME280;20745;50.882;6.962;2023-02-05T02:56:41;102964.59;;;8.29;100.00
34500;BME280;20745;50.882;6.962;2023-02-05T02:59:28;102976.78;;;8.22;100.00
34500;BME280;20745;50.882;6.962;2023-02-05T03:01:57;102972.34;;;8.21;100.00
34500;BME280;20745;50.882;6.962;2023-02-05T03:04:38;102961.38;;;8.24;100.00
34500;BME280;20745;50.882;6.962;2023-02-05T03:07:12;102972.66;;;8.29;100.00
34500;BME280;20745;50.882;6.962;2023-02-05T03:09:49;102971.47;;;8.20;100.00
34500;BME280;20745;50.882;6.962;2023-02-05T03:12:18;102968.72;;;8.22;100.00
34500;BME280;20745;50.882;6.962;2023-02-05T03:14:45;102962.88;;;8.28;100.00
34500;BME280;20745;50.882;6.962;2023-02-05T03:17:11;102959.75;;;8.34;100.00
34500;BME280;20745;50.882;6.962;2023-02-05T03:19:56;102952.16;;;8.39;100.00
34500;BME280;20745;50.882;6.962;2023-02-05T03:22:27;102939.97;;;8.46;100.00
34500;BME280;20745;50.882;6.962;2023-02-05T03:24:54;102957.56;;;8.39;100.00
34500;BME280;20745;50.882;6.962;2023-02-05T03:27:21;102938.66;;;8.28;100.00
34500;BME280;20745;50.882;6.962;2023-02-05T03:29:48;102943.81;;;8.31;100.00
34500;BME280;20745;50.882;6.962;2023-02-05T03:40:41;102918.94;;;8.51;100.00
34500;BME280;20745;50.882;6.962;2023-02-05T03:46:27;102931.66;;;8.49;100.00
34500;BME280;20745;50.882;6.962;2023-02-05T03:51:57;102916.75;;;8.56;100.00
34500;BME280;20745;50.882;6.962;2023-02-05T03:57:07;102919.44;;;8.56;100.00
34500;BME280;20745;50.882;6.962;2023-02-05T03:59:37;102918.09;;;8.50;100.00
34500;BME280;20745;50.882;6.962;2023-02-05T04:02:04;102918.53;;;8.44;100.00
34500;BME280;20745;50.882;6.962;2023-02-05T04:04:31;102921.81;;;8.37;100.00
34500;BME280;20745;50.882;6.962;2023-02-05T04:06:58;102917.91;;;8.41;100.00
34500;BME280;20745;50.882;6.962;2023-02-05T04:09:24;102911.09;;;8.48;100.00
34500;BME280;20745;50.882;6.962;2023-02-05T04:11:51;102908.53;;;8.46;100.00
34500;BME280;20745;50.882;6.962;2023-02-05T04:14:17;102930.88;;;8.59;100.00
34500;BME280;20745;50.882;6.962;2023-02-05T04:16:44;102924.00;;;8.55;100.00
34500;BME280;20745;50.882;6.962;2023-02-05T04:19:11;102928.78;;;8.63;100.00
34500;BME280;20745;50.882;6.962;2023-02-05T04:21:37;102927.75;;;8.53;100.00
34500;BME280;20745;50.882;6.962;2023-02-05T04:24:04;102915.72;;;8.46;100.00
34500;BME280;20745;50.882;6.962;2023-02-05T04:26:31;102934.69;;;8.44;100.00
34500;BME280;20745;50.882;6.962;2023-02-05T04:28:57;102916.97;;;8.53;100.00
34500;BME280;20745;50.882;6.962;2023-02-05T04:31:25;102918.28;;;8.60;100.00
34500;BME280;20745;50.882;6.962;2023-02-05T04:33:52;102919.56;;;8.54;100.00
34500;BME280;20745;50.882;6.962;2023-02-05T04:36:18;102917.06;;;8.40;100.00
34500;BME280;20745;50.882;6.962;2023-02-05T04:38:45;102922.22;;;8.43;100.00
34500;BME280;20745;50.882;6.962;2023-02-05T04:41:11;102928.03;;;8.50;100.00
34500;BME280;20745;50.882;6.962;2023-02-05T04:43:38;102929.28;;;8.57;100.00
34500;BME280;20745;50.882;6.962;2023-02-05T04:46:09;102936.38;;;8.58;100.00
34500;BME280;20745;50.882;6.962;2023-02-05T04:48:37;102939.47;;;8.41;100.00
34500;BME280;20745;50.882;6.962;2023-02-05T04:51:08;102935.34;;;8.48;100.00
34500;BME280;20745;50.882;6.962;2023-02-05T04:53:37;102918.66;;;8.43;100.00
34500;BME280;20745;50.882;6.962;2023-02-05T04:56:09;102943.47;;;8.59;100.00
34500;BME280;20745;50.882;6.962;2023-02-05T04:58:36;102941.41;;;8.62;100.00
34500;BME280;20745;50.882;6.962;2023-02-05T05:01:03;102934.78;;;8.55;100.00
34500;BME280;20745;50.882;6.962;2023-02-05T05:03:30;102941.97;;;8.55;100.00
34500;BME280;20745;50.882;6.962;2023-02-05T05:06:02;102940.03;;;8.57;100.00
34500;BME280;20745;50.882;6.962;2023-02-05T05:08:29;102933.16;;;8.53;100.00
34500;BME280;20745;50.882;6.962;2023-02-05T05:10:56;102941.41;;;8.39;100.00
34500;BME280;20745;50.882;6.962;2023-02-05T05:13:22;102938.59;;;8.40;100.00
34500;BME280;20745;50.882;6.962;2023-02-05T05:15:53;102937.50;;;8.43;100.00
34500;BME280;20745;50.882;6.962;2023-02-05T05:18:20;102938.94;;;8.36;100.00
34500;BME280;20745;50.882;6.962;2023-02-05T05:20:47;102937.44;;;8.32;100.00
34500;BME280;20745;50.882;6.962;2023-02-05T05:23:13;102942.59;;;8.35;100.00
34500;BME280;20745;50.882;6.962;2023-02-05T05:25:44;102940.03;;;8.33;100.00
34500;BME280;20745;50.882;6.962;2023-02-05T05:28:12;102933.03;;;8.31;100.00
34500;BME280;20745;50.882;6.962;2023-02-05T05:30:40;102943.81;;;8.31;100.00
34500;BME280;20745;50.882;6.962;2023-02-05T05:33:25;102939.41;;;8.30;100.00
34500;BME280;20745;50.882;6.962;2023-02-05T05:36:13;102938.81;;;8.37;100.00
34500;BME280;20745;50.882;6.962;2023-02-05T05:39:00;102921.50;;;8.41;100.00
34500;BME280;20745;50.882;6.962;2023-02-05T05:42:03;102918.78;;;8.41;100.00
34500;BME280;20745;50.882;6.962;2023-02-05T05:44:48;102906.22;;;8.53;100.00
34500;BME280;20745;50.882;6.962;2023-02-05T05:47:18;102903.66;;;8.51;100.00
34500;BME280;20745;50.882;6.962;2023-02-05T05:49:45;102901.09;;;8.50;100.00
34500;BME280;20745;50.882;6.962;2023-02-05T05:52:12;102916.97;;;8.53;100.00
34500;BME280;20745;50.882;6.962;2023-02-05T05:54:38;102909.84;;;8.41;100.00
34500;BME280;20745;50.882;6.962;2023-02-05T05:57:06;102916.66;;;8.34;100.00
34500;BME280;20745;50.882;6.962;2023-02-05T05:59:33;102915.56;;;8.36;100.00
34500;BME280;20745;50.882;6.962;2023-02-05T06:02:01;102918.78;;;8.41;100.00
34500;BME280;20745;50.882;6.962;2023-02-05T06:04:27;102911.75;;;8.51;100.00
34500;BME280;20745;50.882;6.962;2023-02-05T06:06:54;102916.66;;;8.57;100.00
34500;BME280;20745;50.882;6.962;2023-02-05T06:09:21;102903.50;;;8.53;100.00
34500;BME280;20745;50.882;6.962;2023-02-05T06:11:47;102907.72;;;8.57;100.00
34500;BME280;20745;50.882;6.962;2023-02-05T06:14:24;102908.63;;;8.45;100.00
34500;BME280;20745;50.882;6.962;2023-02-05T06:16:51;102913.53;;;8.40;100.00
34500;BME280;20745;50.882;6.962;2023-02-05T06:19:20;102912.41;;;8.42;100.00
34500;BME280;20745;50.882;6.962;2023-02-05T06:21:47;102916.31;;;8.38;100.00
34500;BME280;20745;50.882;6.962;2023-02-05T06:24:14;102914.81;;;8.34;100.00
34500;BME280;20745;50.882;6.962;2023-02-05T06:26:40;102916.44;;;8.37;100.00
34500;BME280;20745;50.882;6.962;2023-02-05T06:29:07;102912.88;;;8.36;100.00
34500;BME280;20745;50.882;6.962;2023-02-05T06:31:33;102911.28;;;8.34;100.00
34500;BME280;20745;50.882;6.962;2023-02-05T06:34:00;102906.94;;;8.31;100.00
34500;BME280;20745;50.882;6.962;2023-02-05T06:36:26;102908.91;;;8.29;100.00
34500;BME280;20745;50.882;6.962;2023-02-05T06:38:53;102902.44;;;8.32;100.00
34500;BME280;20745;50.882;6.962;2023-02-05T06:41:19;102906.13;;;8.31;100.00
34500;BME280;20745;50.882;6.962;2023-02-05T06:43:46;102902.44;;;8.32;100.00
34500;BME280;20745;50.882;6.962;2023-02-05T06:46:12;102902.44;;;8.32;100.00
34500;BME280;20745;50.882;6.962;2023-02-05T06:48:39;102913.22;;;8.32;100.00
34500;BME280;20745;50.882;6.962;2023-02-05T06:51:05;102898.16;;;8.29;100.00
34500;BME280;20745;50.882;6.962;2023-02-05T06:53:32;102903.41;;;8.31;100.00
34500;BME280;20745;50.882;6.962;2023-02-05T06:55:59;102895.34;;;8.31;100.00
34500;BME280;20745;50.882;6.962;2023-02-05T06:58:25;102897.59;;;8.37;100.00
34500;BME280;20745;50.882;6.962;2023-02-05T07:00:52;102891.22;;;8.38;100.00
34500;BME280;20745;50.882;6.962;2023-02-05T07:03:18;102888.75;;;8.35;100.00
34500;BME280;20745;50.882;6.962;2023-02-05T07:05:45;102890.78;;;8.31;100.00
34500;BME280;20745;50.882;6.962;2023-02-05T07:08:11;102827.72;;;7.99;100.00
34500;BME280;20745;50.882;6.962;2023-02-05T07:10:38;102893.16;;;8.36;100.00
34500;BME280;20745;50.882;6.962;2023-02-05T07:13:04;102898.44;;;8.37;100.00
34500;BME280;20745;50.882;6.962;2023-02-05T07:15:31;102896.59;;;8.38;100.00
34500;BME280;20745;50.882;6.962;2023-02-05T07:18:00;102905.19;;;8.43;100.00
34500;BME280;20745;50.882;6.962;2023-02-05T07:20:27;102891.97;;;8.40;100.00
34500;BME280;20745;50.882;6.962;2023-02-05T07:22:53;102892.69;;;8.42;100.00
34500;BME280;20745;50.882;6.962;2023-02-05T07:25:20;102895.50;;;8.40;100.00
34500;BME280;20745;50.882;6.962;2023-02-05T07:27:47;102886.31;;;8.43;100.00
34500;BME280;20745;50.882;6.962;2023-02-05T07:30:14;102893.47;;;8.44;100.00
34500;BME280;20745;50.882;6.962;2023-02-05T07:32:40;102889.66;;;8.46;100.00
34500;BME280;20745;50.882;6.962;2023-02-05T07:35:07;102886.47;;;8.41;100.00
34500;BME280;20745;50.882;6.962;2023-02-05T07:37:34;102889.03;;;8.43;100.00
34500;BME280;20745;50.882;6.962;2023-02-05T07:40:02;102892.19;;;8.37;100.00
34500;BME280;20745;50.882;6.962;2023-02-05T07:42:29;102886.06;;;8.35;100.00
34500;BME280;20745;50.882;6.962;2023-02-05T07:44:57;102893.69;;;8.41;100.00
34500;BME280;20745;50.882;6.962;2023-02-05T07:47:23;102879.75;;;8.47;100.00
34500;BME280;20745;50.882;6.962;2023-02-05T07:49:50;102886.88;;;8.48;100.00
34500;BME280;20745;50.882;6.962;2023-02-05T07:52:16;102884.91;;;8.50;100.00
34500;BME280;20745;50.882;6.962;2023-02-05T07:54:43;102885.75;;;8.50;100.00
34500;BME280;20745;50.882;6.962;2023-02-05T07:57:09;102881.97;;;8.53;100.00
34500;BME280;20745;50.882;6.962;2023-02-05T07:59:36;102879.75;;;8.47;100.00
34500;BME280;20745;50.882;6.962;2023-02-05T08:02:03;102880.94;;;8.43;100.00
34500;BME280;20745;50.882;6.962;2023-02-05T08:04:29;102879.22;;;8.42;100.00
34500;BME280;20745;50.882;6.962;2023-02-05T08:06:56;102871.50;;;8.37;100.00
34500;BME280;20745;50.882;6.962;2023-02-05T08:09:22;102878.25;;;8.43;100.00
34500;BME280;20745;50.882;6.962;2023-02-05T08:11:49;102887.84;;;8.47;100.00
34500;BME280;20745;50.882;6.962;2023-02-05T08:14:15;102880.84;;;8.44;100.00
34500;BME280;20745;50.882;6.962;2023-02-05T08:16:42;102882.91;;;8.41;100.00
34500;BME280;20745;50.882;6.962;2023-02-05T08:19:13;102883.13;;;8.38;100.00
34500;BME280;20745;50.882;6.962;2023-02-05T08:21:40;102871.84;;;8.33;100.00
34500;BME280;20745;50.882;6.962;2023-02-05T08:24:07;102866.72;;;8.30;100.00
34500;BME280;20745;50.882;6.962;2023-02-05T08:26:34;102874.66;;;8.31;100.00
34500;BME280;20745;50.882;6.962;2023-02-05T08:29:00;102866.56;;;8.31;100.00
34500;BME280;20745;50.882;6.962;2023-02-05T08:31:27;102868.00;;;8.24;100.00
34500;BME280;20745;50.882;6.962;2023-02-05T08:33:54;102871.44;;;8.26;100.00
34500;BME280;20745;50.882;6.962;2023-02-05T08:36:21;102874.72;;;8.42;100.00
34500;BME280;20745;50.882;6.962;2023-02-05T08:38:48;102871.47;;;8.50;100.00
34500;BME280;20745;50.882;6.962;2023-02-05T08:41:15;102862.06;;;8.55;100.00
34500;BME280;20745;50.882;6.962;2023-02-05T08:43:47;102865.88;;;8.64;100.00
34500;BME280;20745;50.882;6.962;2023-02-05T08:46:20;102864.13;;;8.63;100.00
34500;BME280;20745;50.882;6.962;2023-02-05T08:48:51;102869.06;;;8.69;100.00
34500;BME280;20745;50.882;6.962;2023-02-05T08:51:19;102851.66;;;8.62;100.00
34500;BME280;20745;50.882;6.962;2023-02-05T08:53:48;102845.03;;;8.66;100.00
34500;BME280;20745;50.882;6.962;2023-02-05T08:56:16;102851.41;;;8.65;100.00
34500;BME280;20745;50.882;6.962;2023-02-05T08:58:46;102847.38;;;8.59;100.00
34500;BME280;20745;50.882;6.962;2023-02-05T09:01:14;102846.25;;;8.62;100.00
34500;BME280;20745;50.882;6.962;2023-02-05T09:03:42;102856.19;;;8.61;100.00
34500;BME280;20745;50.882;6.962;2023-02-05T09:06:12;102851.03;;;8.58;100.00
34500;BME280;20745;50.882;6.962;2023-02-05T09:08:39;102846.72;;;8.56;100.00
34500;BME280;20745;50.882;6.962;2023-02-05T09:11:06;102850.41;;;8.55;100.00
34500;BME280;20745;50.882;6.962;2023-02-05T09:13:33;102844.00;;;8.45;100.00
34500;BME280;20745;50.882;6.962;2023-02-05T09:15:59;102851.50;;;8.52;100.00
34500;BME280;20745;50.882;6.962;2023-02-05T09:18:26;102857.66;;;8.31;100.00
34500;BME280;20745;50.882;6.962;2023-02-05T09:20:54;102854.53;;;8.24;100.00
34500;BME280;20745;50.882;6.962;2023-02-05T09:23:22;102877.06;;;8.23;100.00
34500;BME280;20745;50.882;6.962;2023-02-05T09:25:48;102874.91;;;8.16;100.00
34500;BME280;20745;50.882;6.962;2023-02-05T09:28:15;102894.66;;;8.04;100.00
34500;BME280;20745;50.882;6.962;2023-02-05T09:30:43;102868.47;;;8.06;100.00
34500;BME280;20745;50.882;6.962;2023-02-05T09:33:11;102896.81;;;7.99;100.00
34500;BME280;20745;50.882;6.962;2023-02-05T09:35:38;102905.09;;;7.96;100.00
34500;BME280;20745;50.882;6.962;2023-02-05T09:38:05;102902.19;;;7.99;100.00
34500;BME280;20745;50.882;6.962;2023-02-05T09:40:37;102898.31;;;8.03;100.00
34500;BME280;20745;50.882;6.962;2023-02-05T09:43:25;102915.66;;;7.99;100.00
34500;BME280;20745;50.882;6.962;2023-02-05T09:45:59;102918.50;;;7.85;100.00
34500;BME280;20745;50.882;6.962;2023-02-05T09:51:33;102907.22;;;7.80;100.00
34500;BME280;20745;50.882;6.962;2023-02-05T09:56:41;102927.75;;;7.81;100.00
34500;BME280;20745;50.882;6.962;2023-02-05T09:59:16;102933.44;;;7.89;100.00
34500;BME280;20745;50.882;6.962;2023-02-05T10:04:50;102925.91;;;7.94;100.00
34500;BME280;20745;50.882;6.962;2023-02-05T10:07:24;102924.31;;;7.79;100.00
34500;BME280;20745;50.882;6.962;2023-02-05T10:09:57;102919.47;;;7.71;100.00
34500;BME280;20745;50.882;6.962;2023-02-05T10:18:32;102922.59;;;7.78;100.00
34500;BME280;20745;50.882;6.962;2023-02-05T10:26:48;102934.19;;;7.91;100.00
34500;BME280;20745;50.882;6.962;2023-02-05T10:29:23;102925.19;;;7.79;100.00
34500;BME280;20745;50.882;6.962;2023-02-05T10:32:08;102933.31;;;7.90;100.00
34500;BME280;20745;50.882;6.962;2023-02-05T10:37:46;102923.28;;;8.05;100.00
34500;BME280;20745;50.882;6.962;2023-02-05T10:40:20;102922.13;;;7.96;100.00
34500;BME280;20745;50.882;6.962;2023-02-05T10:43:19;102926.41;;;7.99;100.00
34500;BME280;20745;50.882;6.962;2023-02-05T10:45:47;102927.69;;;8.06;100.00
34500;BME280;20745;50.882;6.962;2023-02-05T10:51:14;102918.88;;;7.91;100.00
34500;BME280;20745;50.882;6.962;2023-02-05T10:53:42;102922.78;;;8.00;100.00
34500;BME280;20745;50.882;6.962;2023-02-05T10:56:15;102916.63;;;7.98;100.00
34500;BME280;20745;50.882;6.962;2023-02-05T10:58:57;102917.34;;;8.12;100.00
34500;BME280;20745;50.882;6.962;2023-02-05T11:01:31;102917.97;;;8.16;100.00
34500;BME280;20745;50.882;6.962;2023-02-05T11:04:00;102911.41;;;8.20;100.00
34500;BME280;20745;50.882;6.962;2023-02-05T11:06:32;102915.72;;;8.22;100.00
34500;BME280;20745;50.882;6.962;2023-02-05T11:09:02;102919.28;;;8.10;100.00
34500;BME280;20745;50.882;6.962;2023-02-05T11:11:30;102916.47;;;8.12;100.00
34500;BME280;20745;50.882;6.962;2023-02-05T11:14:00;102926.75;;;8.07;100.00
34500;BME280;20745;50.882;6.962;2023-02-05T11:16:37;102916.69;;;8.09;100.00
34500;BME280;20745;50.882;6.962;2023-02-05T11:19:27;102921.13;;;8.10;100.00
34500;BME280;20745;50.882;6.962;2023-02-05T11:21:59;102909.72;;;8.06;100.00
34500;BME280;20745;50.882;6.962;2023-02-05T11:27:32;102908.50;;;8.10;100.00
34500;BME280;20745;50.882;6.962;2023-02-05T11:36:02;102905.69;;;8.24;100.00
34500;BME280;20745;50.882;6.962;2023-02-05T11:38:43;102888.41;;;8.03;100.00
34500;BME280;20745;50.882;6.962;2023-02-05T11:41:14;102901.75;;;8.05;100.00
34500;BME280;20745;50.882;6.962;2023-02-05T11:43:51;102892.91;;;8.15;100.00
34500;BME280;20745;50.882;6.962;2023-02-05T11:46:22;102902.41;;;8.08;100.00
34500;BME280;20745;50.882;6.962;2023-02-05T11:48:57;102898.63;;;8.11;100.00
34500;BME280;20745;50.882;6.962;2023-02-05T11:54:13;102898.06;;;8.18;100.00
34500;BME280;20745;50.882;6.962;2023-02-05T11:56:41;102893.09;;;8.25;100.00
34500;BME280;20745;50.882;6.962;2023-02-05T11:59:20;102897.53;;;8.13;100.00
34500;BME280;20745;50.882;6.962;2023-02-05T12:01:47;102893.69;;;8.05;100.00
34500;BME280;20745;50.882;6.962;2023-02-05T12:04:17;102884.50;;;8.07;100.00
34500;BME280;20745;50.882;6.962;2023-02-05T12:06:45;102897.34;;;8.04;100.00
34500;BME280;20745;50.882;6.962;2023-02-05T12:09:20;102899.72;;;8.08;100.00
34500;BME280;20745;50.882;6.962;2023-02-05T12:11:56;102899.47;;;8.11;100.00
34500;BME280;20745;50.882;6.962;2023-02-05T12:15:01;102908.50;;;8.23;100.00
34500;BME280;20745;50.882;6.962;2023-02-05T12:17:46;102908.63;;;8.09;100.00
34500;BME280;20745;50.882;6.962;2023-02-05T12:25:49;102892.81;;;8.04;100.00
34500;BME280;20745;50.882;6.962;2023-02-05T12:28:31;102899.81;;;8.07;100.00
34500;BME280;20745;50.882;6.962;2023-02-05T12:31:19;102890.22;;;8.03;100.00
34500;BME280;20745;50.882;6.962;2023-02-05T12:36:45;102892.91;;;8.03;100.00
34500;BME280;20745;50.882;6.962;2023-02-05T12:41:59;102889.91;;;8.07;100.00
34500;BME280;20745;50.882;6.962;2023-02-05T12:44:51;102897.34;;;8.04;100.00
34500;BME280;20745;50.882;6.962;2023-02-05T12:56:20;102904.53;;;7.80;100.00
34500;BME280;20745;50.882;6.962;2023-02-05T12:58:58;102896.56;;;7.66;100.00
34500;BME280;20745;50.882;6.962;2023-02-05T13:01:41;102899.75;;;7.83;100.00
34500;BME280;20745;50.882;6.962;2023-02-05T13:04:33;102897.16;;;7.94;100.00
34500;BME280;20745;50.882;6.962;2023-02-05T13:07:17;102868.72;;;7.67;100.00
34500;BME280;20745;50.882;6.962;2023-02-05T13:09:59;102900.09;;;7.79;100.00
34500;BME280;20745;50.882;6.962;2023-02-05T13:12:33;102874.56;;;7.84;100.00
34500;BME280;20745;50.882;6.962;2023-02-05T13:15:17;102896.31;;;7.94;100.00
34500;BME280;20745;50.882;6.962;2023-02-05T13:17:56;102879.47;;;8.03;100.00
34500;BME280;20745;50.882;6.962;2023-02-05T13:23:20;102887.69;;;7.89;100.00
34500;BME280;20745;50.882;6.962;2023-02-05T13:26:10;102889.63;;;7.99;100.00
34500;BME280;20745;50.882;6.962;2023-02-05T13:28:56;102887.47;;;7.92;100.00
34500;BME280;20745;50.882;6.962;2023-02-05T13:31:53;102892.22;;;7.88;100.00
34500;BME280;20745;50.882;6.962;2023-02-05T13:34:23;102882.75;;;7.83;100.00
34500;BME280;20745;50.882;6.962;2023-02-05T13:37:03;102887.63;;;7.78;100.00
34500;BME280;20745;50.882;6.962;2023-02-05T13:39:58;102891.50;;;7.74;100.00
34500;BME280;20745;50.882;6.962;2023-02-05T13:46:02;102912.91;;;7.75;100.00
34500;BME280;20745;50.882;6.962;2023-02-05T13:57:37;102922.81;;;7.49;100.00
34500;BME280;20745;50.882;6.962;2023-02-05T14:00:16;102931.97;;;7.59;100.00
34500;BME280;20745;50.882;6.962;2023-02-05T14:02:46;102938.41;;;7.57;100.00
34500;BME280;20745;50.882;6.962;2023-02-05T14:05:15;102915.53;;;7.26;100.00
34500;BME280;20745;50.882;6.962;2023-02-05T14:07:58;102955.75;;;7.40;100.00
34500;BME280;20745;50.882;6.962;2023-02-05T14:10:31;102957.34;;;7.43;100.00
34500;BME280;20745;50.882;6.962;2023-02-05T14:15:41;102971.66;;;7.43;100.00
34500;BME280;20745;50.882;6.962;2023-02-05T14:26:50;102972.63;;;7.42;100.00
34500;BME280;20745;50.882;6.962;2023-02-05T14:29:43;103003.50;;;7.49;100.00
34500;BME280;20745;50.882;6.962;2023-02-05T14:32:12;102986.28;;;7.39;100.00
34500;BME280;20745;50.882;6.962;2023-02-05T14:35:01;102994.69;;;7.47;100.00
34500;BME280;20745;50.882;6.962;2023-02-05T14:42:56;103010.63;;;7.50;100.00
34500;BME280;20745;50.882;6.962;2023-02-05T14:45:42;103012.53;;;7.48;100.00
34500;BME280;20745;50.882;6.962;2023-02-05T14:48:25;103021.78;;;7.44;100.00
34500;BME280;20745;50.882;6.962;2023-02-05T14:51:01;103018.78;;;7.49;100.00
34500;BME280;20745;50.882;6.962;2023-02-05T14:53:29;103031.47;;;7.59;100.00
34500;BME280;20745;50.882;6.962;2023-02-05T14:55:57;103031.16;;;7.51;100.00
34500;BME280;20745;50.882;6.962;2023-02-05T14:58:36;103020.28;;;7.40;100.00
34500;BME280;20745;50.882;6.962;2023-02-05T15:04:01;103050.06;;;7.50;100.00
34500;BME280;20745;50.882;6.962;2023-02-05T15:06:30;103049.97;;;7.51;100.00
34500;BME280;20745;50.882;6.962;2023-02-05T15:09:14;103050.59;;;7.42;100.00
34500;BME280;20745;50.882;6.962;2023-02-05T15:11:52;103034.91;;;7.49;100.00